Time;durP1;ratioP1;P1;durP2;ratioP2;P2;SDS_P1;SDS_P2;PMS_P1;PMS_P2;Temp;Humidity;BMP_temperature;BMP_pressure;BME280_temperature;BME280_humidity;BME280_pressure;Samples;Min_cycle;Max_cycle;Signal;HPM_P1;HPM_P2
2021/05/28 00:01:37;;;;;;;1.30;0.60;;;15.70;79.50;;;;;;4893677;29;20053;-64
2021/05/28 00:04:04;;;;;;;2.78;0.40;;;15.70;79.60;;;;;;4893675;29;20119;-63
2021/05/28 00:06:32;;;;;;;2.58;0.45;;;15.60;79.70;;;;;;4892819;29;20052;-63
2021/05/28 00:08:59;;;;;;;2.05;0.30;;;15.50;80.00;;;;;;4909607;29;20112;-63
2021/05/28 00:11:26;;;;;;;2.30;0.45;;;15.50;79.50;;;;;;4897034;29;20104;-63
2021/05/28 00:13:53;;;;;;;2.45;0.30;;;15.50;79.70;;;;;;4891949;29;20063;-64
2021/05/28 00:16:20;;;;;;;1.33;0.20;;;15.50;80.00;;;;;;4887208;29;20061;-64
2021/05/28 00:18:47;;;;;;;0.40;0.30;;;15.50;80.50;;;;;;4894098;29;20077;-63
2021/05/28 00:21:14;;;;;;;0.73;0.20;;;15.50;80.30;;;;;;4894346;29;20052;-63
2021/05/28 00:23:41;;;;;;;0.90;0.40;;;15.50;79.90;;;;;;4895997;29;20045;-64
2021/05/28 00:26:08;;;;;;;0.70;0.20;;;15.50;80.30;;;;;;4894253;29;20079;-63
2021/05/28 00:28:35;;;;;;;1.27;0.40;;;15.50;80.30;;;;;;4893128;29;20104;-64
2021/05/28 00:31:02;;;;;;;1.55;0.30;;;15.40;80.00;;;;;;4894963;29;20126;-63
2021/05/28 00:33:29;;;;;;;1.50;0.40;;;15.30;80.60;;;;;;4894711;29;20041;-63
2021/05/28 00:35:56;;;;;;;2.75;0.30;;;15.30;80.70;;;;;;4896322;29;20100;-63
2021/05/28 00:38:23;;;;;;;0.68;0.30;;;15.30;80.60;;;;;;4894261;29;20420;-63
2021/05/28 00:40:51;;;;;;;0.82;0.30;;;15.20;81.20;;;;;;4893009;29;20056;-63
2021/05/28 00:43:17;;;;;;;0.73;0.25;;;15.20;81.00;;;;;;4895171;29;20052;-63
2021/05/28 00:45:44;;;;;;;1.63;0.50;;;15.20;80.80;;;;;;4891930;29;20055;-63
2021/05/28 00:48:11;;;;;;;0.68;0.30;;;15.20;81.00;;;;;;4892632;29;20069;-63
2021/05/28 00:50:39;;;;;;;0.77;0.20;;;15.10;81.10;;;;;;4896482;29;20040;-63
2021/05/28 00:53:06;;;;;;;0.95;0.40;;;15.10;81.30;;;;;;4895781;29;20400;-63
2021/05/28 00:55:33;;;;;;;0.80;0.25;;;15.10;80.70;;;;;;4909424;29;20485;-63
2021/05/28 00:58:00;;;;;;;0.93;0.40;;;15.10;80.70;;;;;;4896840;29;20436;-63
2021/05/28 01:00:28;;;;;;;1.65;0.40;;;15.10;80.80;;;;;;4897704;29;20109;-64
2021/05/28 01:02:55;;;;;;;0.80;0.30;;;15.10;80.80;;;;;;4894592;29;20056;-64
2021/05/28 01:05:26;;;;;;;0.80;0.40;;;15.10;80.50;;;;;;4906723;29;20056;-63
2021/05/28 01:07:54;;;;;;;2.35;0.52;;;15.10;80.20;;;;;;4895153;29;20052;-64
2021/05/28 01:10:21;;;;;;;0.80;0.40;;;15.00;80.50;;;;;;4894310;29;20052;-63
2021/05/28 01:12:48;;;;;;;1.98;0.50;;;15.00;80.40;;;;;;4894959;29;20140;-64
2021/05/28 01:15:16;;;;;;;1.05;0.20;;;15.00;80.00;;;;;;4894837;29;20049;-64
2021/05/28 01:17:43;;;;;;;1.45;0.32;;;15.00;79.90;;;;;;4896025;29;20044;-64
2021/05/28 01:20:10;;;;;;;0.60;0.30;;;15.00;79.70;;;;;;4894275;29;20077;-64
2021/05/28 01:22:38;;;;;;;0.70;0.30;;;14.90;80.00;;;;;;4908530;29;20109;-63
2021/05/28 01:25:07;;;;;;;0.90;0.30;;;14.90;80.20;;;;;;4878001;29;20143;-63
2021/05/28 01:27:34;;;;;;;2.05;0.40;;;14.90;80.40;;;;;;4891619;29;20041;-64
2021/05/28 01:30:04;;;;;;;1.02;0.32;;;14.90;80.20;;;;;;4893158;29;20043;-64
2021/05/28 01:32:31;;;;;;;1.42;0.47;;;14.90;79.60;;;;;;4894197;29;20048;-63
2021/05/28 01:34:59;;;;;;;1.40;0.50;;;14.90;79.70;;;;;;4895887;29;20041;-63
2021/05/28 01:37:26;;;;;;;0.65;0.32;;;14.90;79.90;;;;;;4895194;29;20124;-64
2021/05/28 01:39:53;;;;;;;1.13;0.50;;;14.90;79.20;;;;;;4894094;29;20040;-64
2021/05/28 01:42:21;;;;;;;1.50;0.40;;;14.90;79.40;;;;;;4895180;29;20400;-64
2021/05/28 01:44:48;;;;;;;1.00;0.40;;;14.90;79.00;;;;;;4896642;29;20049;-64
2021/05/28 01:47:15;;;;;;;0.90;0.22;;;14.80;79.20;;;;;;4894345;29;20079;-64
2021/05/28 01:49:43;;;;;;;1.10;0.32;;;14.80;79.20;;;;;;4897021;29;20051;-64
2021/05/28 01:52:12;;;;;;;2.30;0.50;;;14.80;78.90;;;;;;4895861;29;20518;-64
2021/05/28 01:54:40;;;;;;;2.60;0.30;;;14.70;79.20;;;;;;4898372;29;20036;-63
2021/05/28 01:57:08;;;;;;;3.78;0.40;;;14.70;79.20;;;;;;4896721;29;20119;-63
2021/05/28 01:59:36;;;;;;;0.85;0.25;;;14.60;79.10;;;;;;4896373;29;20068;-63
2021/05/28 02:02:03;;;;;;;0.98;0.45;;;14.60;79.10;;;;;;4897009;29;20048;-63
2021/05/28 02:04:30;;;;;;;1.30;0.40;;;14.70;79.10;;;;;;4896421;29;20071;-63
2021/05/28 02:06:57;;;;;;;1.45;0.30;;;14.70;78.80;;;;;;4897915;29;20047;-63
2021/05/28 02:09:24;;;;;;;1.50;0.50;;;14.60;79.00;;;;;;4897172;29;20759;-63
2021/05/28 02:11:51;;;;;;;4.85;0.60;;;14.60;79.70;;;;;;4878814;29;20060;-63
2021/05/28 02:14:19;;;;;;;0.80;0.50;;;14.50;80.00;;;;;;4896912;29;20115;-63
2021/05/28 02:16:46;;;;;;;3.65;1.30;;;14.50;80.20;;;;;;4910799;29;20049;-63
2021/05/28 02:19:13;;;;;;;5.03;1.75;;;14.40;80.80;;;;;;4896940;29;20047;-64
2021/05/28 02:21:40;;;;;;;1.85;0.80;;;14.30;81.10;;;;;;4896869;29;20740;-63
2021/05/28 02:24:11;;;;;;;2.25;0.30;;;14.30;81.60;;;;;;4898887;29;20044;-63
2021/05/28 02:26:39;;;;;;;1.63;0.40;;;14.30;81.70;;;;;;4896821;29;20495;-63
2021/05/28 02:29:06;;;;;;;0.75;0.40;;;14.30;81.40;;;;;;4895995;29;20059;-64
2021/05/28 02:31:33;;;;;;;1.48;0.40;;;14.30;81.60;;;;;;4896473;29;20104;-63
2021/05/28 02:34:00;;;;;;;1.20;0.55;;;14.30;81.80;;;;;;4896048;29;20059;-63
2021/05/28 02:36:27;;;;;;;0.65;0.30;;;14.30;82.00;;;;;;4894586;29;20133;-63
2021/05/28 02:38:55;;;;;;;1.70;0.47;;;14.30;82.10;;;;;;4896332;29;20048;-63
2021/05/28 02:41:22;;;;;;;0.80;0.30;;;14.40;81.90;;;;;;4895574;29;20104;-63
2021/05/28 02:43:49;;;;;;;2.13;0.47;;;14.30;81.70;;;;;;4897316;29;20032;-64
2021/05/28 02:46:16;;;;;;;1.17;0.40;;;14.30;82.00;;;;;;4897078;29;20072;-64
2021/05/28 02:48:43;;;;;;;1.00;0.60;;;14.30;81.90;;;;;;4895428;29;20060;-64
2021/05/28 02:51:12;;;;;;;1.10;0.45;;;14.30;82.10;;;;;;4896910;29;20131;-63
2021/05/28 02:53:39;;;;;;;1.80;0.40;;;14.30;83.40;;;;;;4894794;29;20107;-63
2021/05/28 02:56:06;;;;;;;1.20;0.30;;;14.20;83.50;;;;;;4894529;29;20548;-64
2021/05/28 02:58:35;;;;;;;2.40;0.50;;;14.20;83.90;;;;;;4897613;29;20560;-64
2021/05/28 03:01:03;;;;;;;2.70;0.68;;;14.20;84.20;;;;;;4896192;29;20501;-63
2021/05/28 03:03:30;;;;;;;0.73;0.30;;;14.10;83.40;;;;;;4891860;29;20100;-63
2021/05/28 03:05:57;;;;;;;1.98;0.40;;;14.10;84.00;;;;;;4896510;29;20497;-63
2021/05/28 03:08:26;;;;;;;0.68;0.40;;;14.10;83.70;;;;;;4884616;29;20045;-63
2021/05/28 03:10:53;;;;;;;1.48;0.50;;;14.10;84.10;;;;;;4894629;29;20112;-63
2021/05/28 03:13:20;;;;;;;1.67;0.52;;;14.20;84.50;;;;;;4910387;29;20048;-64
2021/05/28 03:15:47;;;;;;;1.33;0.60;;;14.20;83.90;;;;;;4893321;29;20040;-63
2021/05/28 03:18:18;;;;;;;2.28;0.60;;;14.20;83.90;;;;;;4895481;29;20131;-63
2021/05/28 03:20:55;;;;;;;3.03;1.05;;;14.20;83.90;;;;;;4906570;29;20048;-63
2021/05/28 03:23:22;;;;;;;1.92;0.60;;;14.20;84.00;;;;;;4891720;29;20045;-63
2021/05/28 03:25:50;;;;;;;1.95;0.40;;;14.20;84.20;;;;;;4888589;29;20048;-64
2021/05/28 03:28:17;;;;;;;0.80;0.50;;;14.20;84.40;;;;;;4894910;29;20044;-64
2021/05/28 03:30:43;;;;;;;1.38;0.60;;;14.20;84.30;;;;;;4896621;29;20057;-63
2021/05/28 03:33:10;;;;;;;1.33;0.70;;;14.20;84.40;;;;;;4897228;29;20524;-64
2021/05/28 03:35:37;;;;;;;0.88;0.40;;;14.20;84.60;;;;;;4894370;29;20424;-63
2021/05/28 03:38:04;;;;;;;2.97;0.95;;;14.20;84.70;;;;;;4891873;29;20071;-64
2021/05/28 03:40:31;;;;;;;2.35;0.73;;;14.20;84.80;;;;;;4894689;29;20047;-64
2021/05/28 03:42:58;;;;;;;2.25;0.85;;;14.30;85.40;;;;;;4895199;29;20517;-64
2021/05/28 03:45:25;;;;;;;2.20;0.80;;;14.20;84.70;;;;;;4893998;29;20057;-64
2021/05/28 03:47:52;;;;;;;1.13;0.70;;;14.30;84.60;;;;;;4895839;29;20104;-63
2021/05/28 03:50:19;;;;;;;1.60;0.65;;;14.30;84.90;;;;;;4896116;29;20472;-63
2021/05/28 03:52:46;;;;;;;2.58;0.95;;;14.30;84.80;;;;;;4893214;29;20450;-63
2021/05/28 03:55:13;;;;;;;2.28;0.73;;;14.30;84.80;;;;;;4875360;29;20041;-64
2021/05/28 03:57:40;;;;;;;2.95;1.10;;;14.30;85.10;;;;;;4894952;29;20037;-64
2021/05/28 04:00:08;;;;;;;2.72;0.82;;;14.20;85.40;;;;;;4893790;29;20112;-64
2021/05/28 04:02:42;;;;;;;1.95;1.05;;;14.20;85.70;;;;;;4882928;29;20041;-63
2021/05/28 04:05:10;;;;;;;1.45;0.80;;;14.20;85.60;;;;;;4895983;29;20048;-63
2021/05/28 04:07:38;;;;;;;1.67;0.70;;;14.30;85.80;;;;;;4891993;29;20040;-63
2021/05/28 04:10:05;;;;;;;3.65;1.50;;;14.30;85.30;;;;;;4897155;29;20508;-63
2021/05/28 04:12:32;;;;;;;1.88;0.73;;;14.40;84.60;;;;;;4895110;29;20049;-63
2021/05/28 04:14:59;;;;;;;3.75;1.00;;;14.50;84.30;;;;;;4878886;29;20056;-63
2021/05/28 04:17:26;;;;;;;2.97;0.70;;;14.50;84.00;;;;;;4891196;29;20120;-64
2021/05/28 04:19:53;;;;;;;2.25;0.52;;;14.50;83.80;;;;;;4895274;29;20053;-64
2021/05/28 04:22:24;;;;;;;2.42;0.93;;;14.50;83.10;;;;;;4901570;29;20131;-64
2021/05/28 04:24:51;;;;;;;1.90;0.75;;;14.60;83.30;;;;;;4894111;29;20032;-64
2021/05/28 04:27:19;;;;;;;2.47;0.77;;;14.70;82.60;;;;;;4894976;29;20139;-64
2021/05/28 04:29:46;;;;;;;2.08;0.82;;;14.70;82.20;;;;;;4893986;29;20040;-64
2021/05/28 04:32:13;;;;;;;1.38;0.55;;;14.70;82.50;;;;;;4893938;29;20416;-64
2021/05/28 04:34:40;;;;;;;3.97;0.68;;;14.80;82.80;;;;;;4893881;29;20059;-64
2021/05/28 04:37:07;;;;;;;1.40;0.63;;;14.80;82.30;;;;;;4906645;29;20052;-64
2021/05/28 04:39:34;;;;;;;1.85;0.60;;;14.90;81.80;;;;;;4899864;29;20056;-64
2021/05/28 04:42:02;;;;;;;2.22;0.57;;;14.90;81.30;;;;;;4893680;29;20061;-63
2021/05/28 04:44:28;;;;;;;1.85;0.40;;;14.90;80.80;;;;;;4894656;29;20044;-64
2021/05/28 04:46:56;;;;;;;3.25;0.60;;;14.90;81.10;;;;;;4895279;29;20053;-64
2021/05/28 04:49:24;;;;;;;3.05;0.70;;;14.80;81.50;;;;;;4893341;29;20123;-64
2021/05/28 04:51:51;;;;;;;3.65;0.63;;;14.80;81.50;;;;;;4895136;29;20059;-64
2021/05/28 04:54:18;;;;;;;1.27;0.60;;;14.70;81.10;;;;;;4896168;29;20476;-64
2021/05/28 04:56:45;;;;;;;3.50;0.68;;;14.70;80.90;;;;;;4893910;29;20056;-63
2021/05/28 04:59:12;;;;;;;2.05;0.60;;;14.70;80.90;;;;;;4878189;29;20163;-63
2021/05/28 05:01:39;;;;;;;1.75;0.40;;;14.80;80.40;;;;;;4894169;29;20045;-63
2021/05/28 05:04:06;;;;;;;2.10;0.60;;;14.80;80.50;;;;;;4874501;29;20500;-64
2021/05/28 05:06:33;;;;;;;1.65;0.45;;;14.90;80.40;;;;;;4894323;29;20109;-64
2021/05/28 05:09:00;;;;;;;3.03;0.50;;;14.90;80.40;;;;;;4892486;29;20068;-64
2021/05/28 05:11:27;;;;;;;2.85;0.47;;;15.00;80.20;;;;;;4893093;29;20057;-64
2021/05/28 05:13:54;;;;;;;3.03;0.50;;;15.00;79.30;;;;;;4894672;29;20614;-64
2021/05/28 05:16:24;;;;;;;1.20;0.50;;;15.10;79.00;;;;;;4896107;29;20037;-64
2021/05/28 05:19:09;;;;;;;5.22;0.43;;;15.20;77.80;;;;;;4897483;29;20727;-64
2021/05/28 05:21:36;;;;;;;1.50;0.30;;;15.20;78.40;;;;;;4896264;29;20052;-63
2021/05/28 05:24:04;;;;;;;3.55;0.98;;;15.30;78.00;;;;;;4899098;29;20047;-64
2021/05/28 05:26:31;;;;;;;1.05;0.40;;;15.30;78.50;;;;;;4897289;29;20052;-64
2021/05/28 05:28:58;;;;;;;1.52;0.65;;;15.40;77.70;;;;;;4896908;29;20420;-64
2021/05/28 05:31:25;;;;;;;1.77;0.47;;;15.40;77.30;;;;;;4896537;29;20500;-64
2021/05/28 05:33:53;;;;;;;2.33;0.60;;;15.50;77.20;;;;;;4895146;29;20052;-64
2021/05/28 05:36:23;;;;;;;1.30;0.60;;;15.50;77.10;;;;;;4898103;29;20051;-64
2021/05/28 05:38:50;;;;;;;2.28;0.50;;;15.60;77.80;;;;;;4900179;29;20499;-64
2021/05/28 05:41:17;;;;;;;5.82;0.77;;;15.60;76.50;;;;;;4896235;29;20096;-64
2021/05/28 05:43:45;;;;;;;1.40;0.60;;;15.70;76.70;;;;;;4897578;29;20047;-64
2021/05/28 05:46:12;;;;;;;1.00;0.68;;;15.70;76.60;;;;;;4897752;29;20405;-64
2021/05/28 05:48:41;;;;;;;1.23;0.40;;;15.80;76.50;;;;;;4897012;29;20045;-64
2021/05/28 05:51:08;;;;;;;1.73;0.30;;;15.80;76.70;;;;;;4896920;29;20048;-64
2021/05/28 05:53:35;;;;;;;2.40;0.47;;;15.90;74.10;;;;;;4877877;29;20072;-64
2021/05/28 05:56:02;;;;;;;0.60;0.30;;;16.00;72.80;;;;;;4896920;29;20052;-64
2021/05/28 05:58:29;;;;;;;1.20;0.38;;;16.00;74.10;;;;;;4895028;29;20608;-64
2021/05/28 06:00:56;;;;;;;1.45;0.40;;;16.10;74.20;;;;;;4892325;29;20404;-64
2021/05/28 06:03:23;;;;;;;2.13;0.68;;;16.20;72.20;;;;;;4887342;29;20566;-64
2021/05/28 06:05:50;;;;;;;1.73;0.70;;;16.20;72.40;;;;;;4894998;29;20068;-62
2021/05/28 06:08:17;;;;;;;1.30;0.30;;;16.30;72.50;;;;;;4897441;29;20053;-63
2021/05/28 06:10:44;;;;;;;1.60;0.40;;;16.30;72.30;;;;;;4879306;29;20147;-63
2021/05/28 06:13:11;;;;;;;1.48;0.50;;;16.30;72.30;;;;;;4904231;29;20055;-63
2021/05/28 06:15:38;;;;;;;2.08;0.20;;;16.40;72.40;;;;;;4891213;29;20448;-62
2021/05/28 06:18:06;;;;;;;1.50;0.30;;;16.50;72.10;;;;;;4893568;29;20052;-62
2021/05/28 06:20:33;;;;;;;0.63;0.28;;;16.50;70.90;;;;;;4895562;29;20135;-62
2021/05/28 06:23:00;;;;;;;1.67;0.40;;;16.50;70.20;;;;;;4896881;29;20045;-62
2021/05/28 06:25:28;;;;;;;0.60;0.40;;;16.60;71.40;;;;;;4896876;29;20161;-62
2021/05/28 06:27:55;;;;;;;3.20;0.43;;;16.70;70.60;;;;;;4897905;29;20055;-62
2021/05/28 06:30:22;;;;;;;1.90;0.63;;;16.70;71.70;;;;;;4894118;29;20064;-62
2021/05/28 06:32:49;;;;;;;1.95;0.45;;;16.80;71.00;;;;;;4904463;29;20433;-63
2021/05/28 06:35:16;;;;;;;5.43;0.30;;;16.80;69.90;;;;;;4895933;29;20045;-63
2021/05/28 06:37:43;;;;;;;1.58;0.30;;;16.80;70.10;;;;;;4896638;29;20048;-62
2021/05/28 06:40:11;;;;;;;2.20;0.40;;;16.80;69.40;;;;;;4898109;29;20072;-62
2021/05/28 06:42:38;;;;;;;0.77;0.47;;;16.90;70.00;;;;;;4893756;29;20057;-62
2021/05/28 06:45:07;;;;;;;0.88;0.40;;;16.90;69.40;;;;;;4888482;29;20408;-63
2021/05/28 06:47:34;;;;;;;1.77;0.30;;;17.00;70.10;;;;;;4901872;29;20084;-63
2021/05/28 06:50:01;;;;;;;0.88;0.32;;;17.10;69.30;;;;;;4906562;29;20527;-63
2021/05/28 06:52:28;;;;;;;1.63;0.32;;;17.10;68.20;;;;;;4899376;29;20542;-63
2021/05/28 06:54:55;;;;;;;2.80;0.43;;;17.10;68.90;;;;;;4897653;29;20053;-63
2021/05/28 06:57:24;;;;;;;0.85;0.30;;;17.10;68.40;;;;;;4908949;29;20045;-63
2021/05/28 06:59:51;;;;;;;2.35;0.63;;;17.20;69.20;;;;;;4893171;29;20504;-62
2021/05/28 07:02:18;;;;;;;0.70;0.10;;;17.20;68.60;;;;;;4899035;29;20052;-62
2021/05/28 07:04:46;;;;;;;0.88;0.30;;;17.20;67.30;;;;;;4903114;29;20044;-63
2021/05/28 07:07:13;;;;;;;0.80;0.30;;;17.30;66.70;;;;;;4901337;29;20056;-62
2021/05/28 07:09:41;;;;;;;1.00;0.30;;;17.30;66.50;;;;;;4886225;29;20137;-64
2021/05/28 07:12:09;;;;;;;0.68;0.32;;;17.40;67.60;;;;;;4891676;29;20061;-65
2021/05/28 07:14:38;;;;;;;2.53;0.20;;;17.40;68.20;;;;;;4891689;29;20587;-64
2021/05/28 07:17:05;;;;;;;0.60;0.25;;;17.40;67.60;;;;;;4880573;29;20057;-65
2021/05/28 07:19:32;;;;;;;1.05;0.50;;;17.50;68.60;;;;;;4889904;29;20044;-65
2021/05/28 07:21:59;;;;;;;2.30;0.32;;;17.50;68.40;;;;;;4885189;29;20048;-65
2021/05/28 07:24:27;;;;;;;0.93;0.32;;;17.60;67.50;;;;;;4907882;29;20064;-65
2021/05/28 07:26:54;;;;;;;1.40;0.47;;;17.50;66.80;;;;;;4897837;29;20048;-64
2021/05/28 07:29:21;;;;;;;2.75;0.30;;;17.60;68.60;;;;;;4893458;29;20056;-63
2021/05/28 07:31:48;;;;;;;2.03;0.50;;;17.70;67.70;;;;;;4896723;29;20095;-63
2021/05/28 07:34:15;;;;;;;1.17;0.30;;;17.60;67.50;;;;;;4893734;29;20060;-63
2021/05/28 07:36:42;;;;;;;2.85;0.60;;;17.70;67.90;;;;;;4904037;29;20048;-63
2021/05/28 07:39:09;;;;;;;1.83;0.50;;;17.70;66.90;;;;;;4895908;29;20040;-63
2021/05/28 07:41:37;;;;;;;2.70;0.50;;;17.70;68.50;;;;;;4892123;29;20104;-63
2021/05/28 07:44:05;;;;;;;0.93;0.43;;;17.80;69.20;;;;;;4890140;29;20575;-63
2021/05/28 07:46:39;;;;;;;1.15;0.40;;;17.80;66.90;;;;;;4892704;29;20054;-63
2021/05/28 07:49:06;;;;;;;1.95;0.40;;;17.80;67.80;;;;;;4887142;29;20052;-63
2021/05/28 07:51:34;;;;;;;2.30;0.40;;;17.90;66.30;;;;;;4886949;29;20476;-63
2021/05/28 07:54:01;;;;;;;2.63;0.70;;;17.90;66.00;;;;;;4895563;29;20083;-62
2021/05/28 07:56:29;;;;;;;1.23;0.50;;;17.90;67.10;;;;;;4886248;29;20045;-63
2021/05/28 07:58:55;;;;;;;2.05;0.30;;;17.90;65.50;;;;;;4887152;29;20126;-63
2021/05/28 08:01:22;;;;;;;1.10;0.40;;;18.00;68.10;;;;;;4892135;29;20507;-63
2021/05/28 08:03:49;;;;;;;1.02;0.30;;;18.10;66.80;;;;;;4893537;29;20048;-63
2021/05/28 08:06:17;;;;;;;8.15;0.85;;;18.10;68.00;;;;;;4889796;29;20178;-63
2021/05/28 08:08:44;;;;;;;13.27;1.38;;;18.10;69.10;;;;;;4889539;29;20119;-63
2021/05/28 08:11:11;;;;;;;86.47;8.90;;;18.10;66.70;;;;;;4885922;29;20511;-63
2021/05/28 08:13:38;;;;;;;26.52;3.22;;;18.20;67.70;;;;;;4891647;29;20641;-63
2021/05/28 08:16:05;;;;;;;4.35;0.60;;;18.20;66.10;;;;;;4896737;29;20051;-63
2021/05/28 08:18:33;;;;;;;5.50;0.45;;;18.30;64.70;;;;;;4890508;29;20048;-63
2021/05/28 08:21:01;;;;;;;1.38;0.70;;;18.30;66.50;;;;;;4894721;29;20632;-63
2021/05/28 08:23:28;;;;;;;9.20;0.50;;;18.30;66.80;;;;;;4891187;29;20483;-63
2021/05/28 08:25:55;;;;;;;3.75;0.30;;;18.40;64.60;;;;;;4889870;29;20105;-63
2021/05/28 08:28:24;;;;;;;1.75;0.38;;;18.30;66.50;;;;;;4891040;29;20045;-63
2021/05/28 08:30:52;;;;;;;2.63;0.65;;;18.40;65.60;;;;;;4890207;29;20140;-63
2021/05/28 08:33:19;;;;;;;1.23;0.40;;;18.50;65.50;;;;;;4889546;29;20048;-62
2021/05/28 08:35:46;;;;;;;1.08;0.32;;;18.50;63.70;;;;;;4893848;29;20044;-63
2021/05/28 08:38:13;;;;;;;1.48;0.20;;;18.60;63.70;;;;;;4894645;29;20049;-62
2021/05/28 08:40:41;;;;;;;1.05;0.30;;;18.60;64.70;;;;;;4891063;29;20052;-62
2021/05/28 08:43:08;;;;;;;1.20;0.25;;;18.70;64.10;;;;;;4883416;29;20579;-63
2021/05/28 08:45:40;;;;;;;6.45;0.30;;;18.70;64.80;;;;;;4890990;29;20078;-63
2021/05/28 08:48:11;;;;;;;144.63;14.98;;;18.70;67.10;;;;;;4892681;29;20615;-63
2021/05/28 08:50:39;;;;;;;2.38;0.90;;;18.70;64.80;;;;;;4890550;29;20072;-63
2021/05/28 08:53:09;;;;;;;2.55;0.35;;;18.80;66.60;;;;;;4899303;29;20055;-63
2021/05/28 08:55:38;;;;;;;7.82;0.80;;;18.80;66.90;;;;;;4895985;29;20104;-63
2021/05/28 08:58:10;;;;;;;4.63;0.52;;;18.90;63.70;;;;;;4896521;29;20056;-64
2021/05/28 09:00:38;;;;;;;2.58;0.65;;;18.90;64.10;;;;;;4897518;29;20412;-64
2021/05/28 09:03:26;;;;;;;2.67;0.38;;;19.00;64.60;;;;;;4889554;29;20071;-63
2021/05/28 09:05:59;;;;;;;9.70;0.90;;;19.00;63.50;;;;;;4891331;29;20071;-63
2021/05/28 09:08:31;;;;;;;4.78;0.98;;;19.10;63.60;;;;;;4898491;29;20048;-64
2021/05/28 09:11:16;;;;;;;3.83;0.68;;;19.10;64.60;;;;;;4899083;29;20051;-64
2021/05/28 09:13:52;;;;;;;0.73;0.30;;;19.10;62.50;;;;;;4897471;29;20456;-63
2021/05/28 09:16:23;;;;;;;0.85;0.25;;;19.20;63.40;;;;;;4894645;29;20075;-63
2021/05/28 09:19:00;;;;;;;9.77;0.52;;;19.10;63.50;;;;;;4896132;29;20131;-63
2021/05/28 09:21:33;;;;;;;2.55;0.40;;;19.20;64.10;;;;;;4899019;29;20044;-63
2021/05/28 09:24:01;;;;;;;375.23;38.72;;;19.20;63.50;;;;;;4897439;29;20053;-63
2021/05/28 09:26:30;;;;;;;2.45;0.50;;;19.30;62.20;;;;;;4896723;29;20140;-63
2021/05/28 09:28:58;;;;;;;2.53;0.30;;;19.30;60.80;;;;;;4900616;29;20077;-63
2021/05/28 09:31:32;;;;;;;56.85;5.90;;;19.30;61.00;;;;;;4901140;29;20466;-63
2021/05/28 09:34:00;;;;;;;4.40;0.30;;;19.40;64.40;;;;;;4899865;29;20112;-63
2021/05/28 09:36:29;;;;;;;7.82;0.50;;;19.40;63.90;;;;;;4900900;29;20444;-63
2021/05/28 09:39:09;;;;;;;4.20;0.30;;;19.50;58.80;;;;;;4886800;29;20366;-63
2021/05/28 09:41:46;;;;;;;0.88;0.30;;;19.50;60.30;;;;;;4901206;29;20041;-63
2021/05/28 09:44:22;;;;;;;3.35;0.35;;;19.60;60.60;;;;;;4899348;29;20445;-63
2021/05/28 09:47:14;;;;;;;17.25;1.70;;;19.70;58.50;;;;;;4896283;29;20048;-63
2021/05/28 09:49:44;;;;;;;1.13;0.20;;;19.70;58.80;;;;;;4892710;29;20056;-63
2021/05/28 09:52:18;;;;;;;4.32;0.40;;;19.70;59.60;;;;;;4892020;29;20040;-63
2021/05/28 09:55:01;;;;;;;0.70;0.30;;;19.70;59.20;;;;;;4901583;29;20067;-63
2021/05/28 09:57:40;;;;;;;22.38;2.35;;;19.80;59.30;;;;;;4897145;29;20100;-63
2021/05/28 10:00:10;;;;;;;1.98;0.30;;;19.80;58.30;;;;;;4900031;29;20052;-63
2021/05/28 10:02:43;;;;;;;0.65;0.20;;;19.90;58.50;;;;;;4890319;29;20096;-63
2021/05/28 10:05:12;;;;;;;11.85;1.48;;;19.90;58.00;;;;;;4901729;29;20049;-63
2021/05/28 10:07:40;;;;;;;1.70;0.20;;;20.00;56.50;;;;;;4900972;29;20055;-63
2021/05/28 10:10:09;;;;;;;1.10;0.20;;;20.00;56.40;;;;;;4902347;29;20056;-63
2021/05/28 10:12:37;;;;;;;2.55;0.50;;;20.00;56.20;;;;;;4901223;29;20075;-63
2021/05/28 10:15:08;;;;;;;1.05;0.10;;;20.00;58.00;;;;;;4899091;29;20722;-63
2021/05/28 10:17:35;;;;;;;6.82;0.73;;;20.00;58.50;;;;;;4896488;29;20036;-63
2021/05/28 10:20:05;;;;;;;0.95;0.20;;;20.10;59.90;;;;;;4904399;29;20049;-63
2021/05/28 10:22:32;;;;;;;1.27;0.10;;;20.20;56.60;;;;;;4894137;29;20052;-63
2021/05/28 10:25:04;;;;;;;2.40;0.30;;;20.30;56.30;;;;;;4896453;29;20071;-63
2021/05/28 10:27:32;;;;;;;1.55;0.30;;;20.30;58.80;;;;;;4901217;29;20040;-63
2021/05/28 10:29:59;;;;;;;3.47;0.85;;;20.40;57.00;;;;;;4901346;29;20115;-63
2021/05/28 10:32:27;;;;;;;4.65;0.32;;;20.40;58.70;;;;;;4900399;29;20048;-63
2021/05/28 10:35:04;;;;;;;8.75;0.65;;;20.40;56.60;;;;;;4898199;29;20136;-63
2021/05/28 10:37:32;;;;;;;2.10;0.30;;;20.40;59.50;;;;;;4895640;29;20043;-63
2021/05/28 10:39:59;;;;;;;17.92;1.35;;;20.50;57.90;;;;;;4899962;29;20044;-63
2021/05/28 10:42:26;;;;;;;6.65;0.50;;;20.40;60.20;;;;;;4907020;29;20091;-63
2021/05/28 10:44:53;;;;;;;2.70;0.20;;;20.50;58.20;;;;;;4904330;29;20104;-63
2021/05/28 10:47:22;;;;;;;0.70;0.20;;;20.50;59.90;;;;;;4899910;29;20369;-63
2021/05/28 10:49:52;;;;;;;1.77;0.32;;;20.50;59.20;;;;;;4897824;29;20041;-63
2021/05/28 10:52:34;;;;;;;2.78;0.93;;;20.50;59.60;;;;;;4896725;29;20032;-63
2021/05/28 10:55:12;;;;;;;29.63;12.88;;;20.60;57.90;;;;;;4893242;29;20056;-63
2021/05/28 10:57:53;;;;;;;2.58;1.10;;;20.60;58.00;;;;;;4889397;29;20050;-63
2021/05/28 11:00:30;;;;;;;1.67;0.40;;;20.70;57.50;;;;;;4894733;29;20045;-64
2021/05/28 11:03:18;;;;;;;2.45;0.50;;;20.80;55.10;;;;;;4896175;29;20036;-65
2021/05/28 11:05:47;;;;;;;2.92;0.82;;;20.80;55.80;;;;;;4895871;29;20067;-66
2021/05/28 11:08:37;;;;;;;4.20;0.68;;;20.70;58.00;;;;;;4894947;29;20048;-66
2021/05/28 11:11:05;;;;;;;2.78;0.60;;;20.90;58.30;;;;;;4893816;29;20068;-66
2021/05/28 11:13:57;;;;;;;5.75;0.40;;;21.00;56.10;;;;;;4895908;29;20500;-63
2021/05/28 11:16:25;;;;;;;5.87;0.30;;;21.00;55.20;;;;;;4899669;29;20055;-63
2021/05/28 11:18:52;;;;;;;2.10;0.20;;;21.00;56.90;;;;;;4892724;29;20472;-63
2021/05/28 11:21:22;;;;;;;1.83;0.20;;;21.10;56.20;;;;;;4890852;29;20063;-66
2021/05/28 11:23:53;;;;;;;3.95;0.20;;;21.10;57.70;;;;;;4889746;29;20044;-65
2021/05/28 11:26:27;;;;;;;1.92;0.20;;;21.10;57.90;;;;;;4890453;29;20485;-65
2021/05/28 11:28:57;;;;;;;5.18;0.60;;;21.10;57.60;;;;;;4890586;29;20051;-65
2021/05/28 11:31:28;;;;;;;4.88;0.57;;;21.10;57.90;;;;;;4894099;29;20500;-64
2021/05/28 11:34:01;;;;;;;0.87;0.17;;;21.20;58.30;;;;;;4891059;29;20052;-65
2021/05/28 11:36:30;;;;;;;4.40;0.32;;;21.30;55.70;;;;;;4891424;29;20336;-65
2021/05/28 11:39:01;;;;;;;3.10;0.73;;;21.30;56.30;;;;;;4893561;29;20056;-65
2021/05/28 11:41:49;;;;;;;3.08;0.20;;;21.30;56.90;;;;;;4893159;29;20052;-64
2021/05/28 11:44:19;;;;;;;1.60;0.20;;;21.40;56.00;;;;;;4911124;29;20144;-63
2021/05/28 11:46:51;;;;;;;2.60;0.20;;;21.50;53.80;;;;;;4895194;29;20063;-63
2021/05/28 11:49:21;;;;;;;0.40;0.28;;;21.60;54.20;;;;;;4893796;29;20544;-63
2021/05/28 11:52:05;;;;;;;0.95;0.30;;;21.80;53.10;;;;;;4911632;29;20099;-63
2021/05/28 11:54:34;;;;;;;0.73;0.10;;;22.00;52.00;;;;;;4905324;29;20056;-63
2021/05/28 11:57:12;;;;;;;1.33;0.10;;;22.50;51.10;;;;;;4908012;29;20055;-63
2021/05/28 12:00:06;;;;;;;8.45;0.50;;;23.20;50.10;;;;;;4886164;29;20051;-63
2021/05/28 12:02:41;;;;;;;3.15;0.32;;;23.90;48.40;;;;;;4891397;29;20051;-63
2021/05/28 12:05:15;;;;;;;0.57;0.10;;;25.10;47.30;;;;;;4888377;29;20052;-63
2021/05/28 12:07:42;;;;;;;1.67;0.13;;;26.10;46.40;;;;;;4895771;29;20052;-63
2021/05/28 12:10:12;;;;;;;1.80;0.10;;;26.70;45.20;;;;;;4894831;29;20037;-63
2021/05/28 12:12:58;;;;;;;3.50;0.13;;;27.60;43.10;;;;;;4894429;29;20556;-63
2021/05/28 12:15:32;;;;;;;0.43;0.10;;;28.60;41.90;;;;;;4900619;29;20037;-63
2021/05/28 12:18:02;;;;;;;4.20;0.85;;;29.50;39.20;;;;;;4900298;29;20063;-64
2021/05/28 12:20:32;;;;;;;2.03;0.17;;;30.00;40.30;;;;;;4900661;29;20461;-64
2021/05/28 12:23:06;;;;;;;2.85;0.30;;;30.40;38.00;;;;;;4893832;29;20102;-64
2021/05/28 12:25:37;;;;;;;2.13;0.10;;;30.70;37.60;;;;;;4896662;29;20042;-64
2021/05/28 12:28:16;;;;;;;6.57;0.52;;;30.70;37.50;;;;;;4895334;29;20560;-64
2021/05/28 12:30:45;;;;;;;4.93;0.50;;;30.90;37.10;;;;;;4906504;29;20520;-64
2021/05/28 12:33:13;;;;;;;0.77;0.20;;;30.80;37.50;;;;;;4896838;29;20048;-64
2021/05/28 12:35:40;;;;;;;0.75;0.20;;;30.50;38.30;;;;;;4896697;29;20041;-64
2021/05/28 12:38:17;;;;;;;1.40;0.10;;;30.60;38.00;;;;;;4893712;29;20048;-66
2021/05/28 12:40:48;;;;;;;2.17;0.10;;;30.90;37.70;;;;;;4897448;29;20036;-66
2021/05/28 12:43:21;;;;;;;1.20;0.10;;;31.30;35.70;;;;;;4895249;29;20092;-65
2021/05/28 12:45:49;;;;;;;0.60;0.20;;;31.20;36.40;;;;;;4889408;29;20036;-64
2021/05/28 12:48:17;;;;;;;1.85;0.10;;;31.20;35.40;;;;;;4885858;29;20071;-64
2021/05/28 12:50:50;;;;;;;1.20;0.28;;;31.20;36.20;;;;;;4893736;29;20770;-64
2021/05/28 12:53:21;;;;;;;0.47;0.35;;;31.20;37.10;;;;;;4893332;29;20057;-65
2021/05/28 12:55:56;;;;;;;1.05;0.20;;;31.20;36.20;;;;;;4906396;29;20370;-65